createdAt,value
2019-06-08T00:00:26.800Z,0.90
2019-06-08T00:02:53.783Z,0.97
2019-06-08T00:05:21.127Z,1.03
2019-06-08T00:07:48.233Z,1.03
2019-06-08T00:10:20.551Z,1.07
2019-06-08T00:12:46.160Z,1.10
2019-06-08T00:15:14.039Z,1.10
2019-06-08T00:17:41.297Z,1.10
2019-06-08T00:20:10.062Z,1.27
2019-06-08T00:22:43.850Z,1.17
2019-06-08T00:25:11.465Z,1.00
2019-06-08T00:27:38.505Z,0.90
2019-06-08T00:30:06.610Z,1.23
2019-06-08T00:32:33.639Z,0.93
2019-06-08T00:35:00.616Z,0.90
2019-06-08T00:37:27.649Z,1.17
2019-06-08T00:39:54.622Z,1.20
2019-06-08T00:42:21.605Z,1.03
2019-06-08T00:44:49.694Z,1.30
2019-06-08T00:47:20.946Z,1.10
2019-06-08T00:49:50.225Z,1.17
2019-06-08T00:52:17.232Z,1.40
2019-06-08T00:54:44.681Z,1.47
2019-06-08T00:57:19.698Z,1.20
2019-06-08T00:59:46.980Z,1.30
2019-06-08T01:02:13.926Z,1.30
2019-06-08T01:04:40.915Z,1.10
2019-06-08T01:07:07.937Z,1.30
2019-06-08T01:09:34.939Z,1.03
2019-06-08T01:12:01.877Z,1.20
2019-06-08T01:14:29.143Z,1.30
2019-06-08T01:17:02.175Z,1.10
2019-06-08T01:19:29.639Z,1.20
2019-06-08T01:21:56.797Z,1.07
2019-06-08T01:24:23.807Z,1.03
2019-06-08T01:26:50.798Z,1.13
2019-06-08T01:29:17.822Z,1.20
2019-06-08T01:31:44.798Z,1.63
2019-06-08T01:34:15.474Z,1.13
2019-06-08T01:37:06.172Z,1.10
2019-06-08T01:39:35.531Z,1.00
2019-06-08T01:42:02.510Z,1.43
2019-06-08T01:44:30.051Z,1.20
2019-06-08T01:46:57.187Z,0.90
2019-06-08T01:49:26.251Z,1.20
2019-06-08T01:51:53.283Z,1.17
2019-06-08T01:54:20.286Z,1.17
2019-06-08T01:56:47.276Z,1.07
2019-06-08T01:59:14.261Z,1.23
2019-06-08T02:01:43.575Z,1.07
2019-06-08T02:04:17.342Z,1.00
2019-06-08T02:06:44.356Z,1.00
2019-06-08T02:09:11.357Z,1.10
2019-06-08T02:11:38.385Z,1.50
2019-06-08T02:14:05.476Z,1.30
2019-06-08T02:16:35.596Z,1.10
2019-06-08T02:19:02.662Z,1.10
2019-06-08T02:21:30.854Z,1.10
2019-06-08T02:23:58.122Z,1.23
2019-06-08T02:26:27.583Z,1.00
2019-06-08T02:28:54.017Z,1.17
2019-06-08T02:31:21.054Z,1.03
2019-06-08T02:33:55.874Z,0.87
2019-06-08T02:36:22.890Z,1.00
2019-06-08T02:38:49.882Z,1.10
2019-06-08T02:41:16.893Z,1.10
2019-06-08T02:43:44.069Z,0.90
2019-06-08T02:46:11.086Z,1.00
2019-06-08T02:49:00.155Z,1.00
2019-06-08T02:51:07.006Z,1.10
2019-06-08T02:53:35.984Z,1.43
2019-06-08T02:56:03.859Z,1.20
2019-06-08T02:58:33.540Z,1.00
2019-06-08T03:01:01.929Z,1.00
2019-06-08T03:03:35.766Z,1.23
2019-06-08T03:06:03.559Z,1.00
2019-06-08T03:08:36.284Z,1.07
2019-06-08T03:11:04.622Z,1.10
2019-06-08T03:13:33.952Z,1.10
2019-06-08T03:16:02.639Z,1.00
2019-06-08T03:18:31.464Z,1.00
2019-06-08T03:20:58.492Z,0.90
2019-06-08T03:23:25.459Z,1.20
2019-06-08T03:25:53.461Z,1.17
2019-06-08T03:28:20.764Z,1.30
2019-06-08T03:30:54.303Z,1.20
2019-06-08T03:33:16.675Z,1.30
2019-06-08T03:35:55.816Z,1.57
2019-06-08T03:38:15.351Z,1.00
2019-06-08T03:40:43.485Z,1.30
2019-06-08T03:43:11.216Z,1.50
2019-06-08T03:45:38.327Z,1.10
2019-06-08T03:48:05.387Z,1.23
2019-06-08T03:50:32.369Z,1.10
2019-06-08T03:52:59.490Z,1.40
2019-06-08T03:55:26.503Z,1.43
2019-06-08T03:57:53.544Z,1.20
2019-06-08T04:00:20.561Z,1.20
2019-06-08T04:02:47.566Z,1.20
2019-06-08T04:05:14.647Z,1.13
2019-06-08T04:07:42.205Z,1.30
2019-06-08T04:10:10.710Z,1.20
2019-06-08T04:12:37.861Z,1.23
2019-06-08T04:15:09.893Z,1.20
2019-06-08T04:17:42.206Z,1.30
2019-06-08T04:20:16.861Z,1.30
2019-06-08T04:22:46.307Z,1.30
2019-06-08T04:25:14.021Z,1.30
2019-06-08T04:27:55.633Z,1.33
2019-06-08T04:30:22.718Z,1.27
2019-06-08T04:32:52.498Z,1.23
2019-06-08T04:35:21.385Z,1.20
2019-06-08T04:37:50.657Z,1.20
2019-06-08T04:40:17.834Z,1.10
2019-06-08T04:42:46.709Z,1.60
2019-06-08T04:45:14.151Z,1.33
2019-06-08T04:47:43.216Z,1.23
2019-06-08T04:50:22.653Z,1.10
2019-06-08T04:52:40.809Z,1.00
2019-06-08T04:55:07.980Z,1.23
2019-06-08T04:57:34.987Z,1.17
2019-06-08T05:00:11.188Z,1.53
2019-06-08T05:02:33.946Z,1.73
2019-06-08T05:05:00.970Z,1.60
2019-06-08T05:07:29.761Z,1.33
2019-06-08T05:09:56.781Z,1.87
2019-06-08T05:12:26.074Z,1.30
2019-06-08T05:14:53.133Z,1.40
2019-06-08T05:17:20.139Z,1.83
2019-06-08T05:19:47.461Z,1.20
2019-06-08T05:22:14.518Z,1.77
2019-06-08T05:24:43.507Z,1.47
2019-06-08T05:27:15.422Z,1.43
2019-06-08T05:29:43.252Z,1.50
2019-06-08T05:32:10.288Z,1.50
2019-06-08T05:34:41.377Z,1.80
2019-06-08T05:37:13.507Z,1.63
2019-06-08T05:39:41.470Z,1.67
2019-06-08T05:42:08.561Z,1.63
2019-06-08T05:44:40.079Z,1.50
2019-06-08T05:47:06.849Z,1.57
2019-06-08T05:49:33.824Z,1.70
2019-06-08T05:52:00.944Z,1.70
2019-06-08T05:54:27.906Z,1.70
2019-06-08T05:57:01.741Z,1.87
2019-06-08T05:59:31.875Z,1.90
2019-06-08T06:01:58.857Z,1.93
2019-06-08T06:04:25.962Z,2.10
2019-06-08T06:06:52.963Z,1.43
2019-06-08T06:09:19.940Z,1.70
2019-06-08T06:11:48.905Z,1.90
2019-06-08T06:14:15.931Z,2.03
2019-06-08T06:16:43.141Z,1.80
2019-06-08T06:19:11.487Z,1.50
2019-06-08T06:21:41.532Z,1.77
2019-06-08T06:24:08.540Z,1.57
2019-06-08T06:26:35.559Z,1.10
2019-06-08T06:29:02.832Z,1.53
2019-06-08T06:31:33.566Z,1.70
2019-06-08T06:34:00.579Z,1.60
2019-06-08T06:36:27.557Z,1.67
2019-06-08T06:39:04.259Z,1.67
2019-06-08T06:41:33.848Z,1.53
2019-06-08T06:44:00.858Z,1.50
2019-06-08T06:46:27.862Z,1.60
2019-06-08T06:48:58.228Z,1.40
2019-06-08T06:51:26.811Z,1.60
2019-06-08T06:53:55.125Z,1.20
2019-06-08T06:56:22.215Z,1.63
2019-06-08T06:58:49.425Z,1.20
2019-06-08T07:01:16.444Z,1.30
2019-06-08T07:03:44.528Z,1.63
2019-06-08T07:06:12.746Z,1.60
2019-06-08T07:08:42.010Z,1.17
2019-06-08T07:11:08.732Z,1.20
2019-06-08T07:13:35.728Z,1.20
2019-06-08T07:18:56.587Z,1.60
2019-06-08T07:21:23.587Z,1.50
2019-06-08T07:23:54.398Z,1.40
2019-06-08T07:26:20.710Z,1.40
2019-06-08T07:28:53.598Z,1.60
2019-06-08T07:31:21.150Z,1.27
2019-06-08T07:33:51.860Z,1.47
2019-06-08T07:36:18.173Z,1.30
2019-06-08T07:38:45.226Z,1.60
2019-06-08T07:41:12.204Z,1.40
2019-06-08T07:43:39.280Z,1.50
2019-06-08T07:46:06.268Z,1.63
2019-06-08T07:48:33.240Z,1.50
2019-06-08T07:51:00.489Z,1.40
2019-06-08T07:53:27.515Z,1.40
2019-06-08T07:55:56.232Z,1.50
2019-06-08T07:58:26.141Z,1.50
2019-06-08T08:00:54.635Z,1.13
2019-06-08T08:03:22.859Z,1.30
2019-06-08T08:05:50.369Z,1.60
2019-06-08T08:08:17.560Z,1.30
2019-06-08T08:10:44.542Z,1.83
2019-06-08T08:13:11.562Z,1.40
2019-06-08T08:15:38.623Z,1.50
2019-06-08T08:18:08.456Z,1.40
2019-06-08T08:20:35.691Z,1.30
2019-06-08T08:23:12.487Z,1.30
2019-06-08T08:25:39.525Z,1.47
2019-06-08T08:28:08.220Z,1.83
2019-06-08T08:30:37.687Z,1.40
2019-06-08T08:33:07.783Z,1.67
2019-06-08T08:35:35.052Z,1.70
2019-06-08T08:38:04.396Z,1.90
2019-06-08T08:40:31.013Z,1.33
2019-06-08T08:42:58.760Z,1.57
2019-06-08T08:45:27.616Z,1.67
2019-06-08T08:48:14.417Z,1.40
2019-06-08T08:50:28.409Z,1.57
2019-06-08T08:52:58.492Z,1.50
2019-06-08T08:55:24.319Z,1.50
2019-06-08T08:57:52.160Z,1.40
2019-06-08T09:00:20.407Z,1.53
2019-06-08T09:02:59.135Z,1.10
2019-06-08T09:05:20.198Z,1.83
2019-06-08T09:07:48.296Z,1.90
2019-06-08T09:10:18.123Z,1.50
2019-06-08T09:12:44.851Z,1.70
2019-06-08T09:15:18.986Z,1.50
2019-06-08T09:17:48.157Z,1.90
2019-06-08T09:20:15.871Z,1.87
2019-06-08T09:22:53.730Z,1.70
2019-06-08T09:25:14.540Z,1.80
2019-06-08T09:27:41.478Z,1.97
2019-06-08T09:30:09.625Z,1.80
2019-06-08T09:32:38.265Z,1.60
2019-06-08T09:35:05.895Z,1.90
2019-06-08T09:37:32.912Z,2.23
2019-06-08T09:40:00.882Z,2.17
2019-06-08T09:42:31.801Z,1.90
2019-06-08T09:45:02.150Z,1.73
2019-06-08T09:47:28.085Z,2.00
2019-06-08T09:50:00.401Z,2.10
2019-06-08T09:52:28.161Z,2.10
2019-06-08T09:55:02.030Z,2.00
2019-06-08T09:57:30.320Z,1.73
2019-06-08T10:00:04.353Z,2.00
2019-06-08T10:02:31.129Z,2.00
2019-06-08T10:05:00.509Z,1.93
2019-06-08T10:07:31.071Z,2.13
2019-06-08T10:09:58.766Z,2.13
2019-06-08T10:12:25.011Z,1.80
2019-06-08T10:14:52.001Z,2.03
2019-06-08T10:17:20.977Z,1.97
2019-06-08T10:19:49.179Z,2.00
2019-06-08T10:22:18.259Z,2.00
2019-06-08T10:24:49.089Z,1.70
2019-06-08T10:27:18.534Z,1.77
2019-06-08T10:29:44.585Z,2.10
2019-06-08T10:32:13.957Z,2.30
2019-06-08T10:34:47.970Z,1.97
2019-06-08T10:37:14.798Z,2.30
2019-06-08T10:39:42.157Z,1.73
2019-06-08T10:42:11.954Z,2.17
2019-06-08T10:44:38.960Z,2.17
2019-06-08T10:47:09.987Z,2.23
2019-06-08T10:50:43.086Z,2.10
2019-06-08T10:53:12.382Z,1.87
2019-06-08T10:55:40.892Z,1.80
2019-06-08T10:58:11.379Z,1.80
2019-06-08T11:00:40.231Z,2.27
2019-06-08T11:03:10.042Z,2.10
2019-06-08T11:05:36.169Z,1.87
2019-06-08T11:08:04.475Z,2.17
2019-06-08T11:10:37.274Z,2.30
2019-06-08T11:13:08.246Z,1.90
2019-06-08T11:15:34.648Z,1.90
2019-06-08T11:18:04.744Z,2.47
2019-06-08T11:20:30.646Z,2.37
2019-06-08T11:22:58.383Z,2.40
2019-06-08T11:25:28.047Z,2.10
2019-06-08T11:27:55.225Z,2.40
2019-06-08T11:30:26.671Z,2.17
2019-06-08T11:32:51.444Z,2.37
2019-06-08T11:35:18.531Z,2.50
2019-06-08T11:37:45.501Z,2.33
2019-06-08T11:40:14.683Z,2.20
2019-06-08T11:42:41.767Z,2.47
2019-06-08T11:45:11.138Z,2.10
2019-06-08T11:47:39.151Z,2.17
2019-06-08T11:50:11.671Z,2.20
2019-06-08T11:52:39.488Z,2.13
2019-06-08T11:55:07.482Z,1.93
2019-06-08T11:57:40.910Z,2.50
2019-06-08T12:00:24.038Z,1.63
2019-06-08T12:02:44.964Z,1.90
2019-06-08T12:05:20.713Z,2.03
2019-06-08T12:07:48.110Z,2.07
2019-06-08T12:10:17.635Z,2.53
2019-06-08T12:12:44.165Z,2.20
2019-06-08T12:15:13.257Z,2.20
2019-06-08T12:17:40.390Z,2.60
2019-06-08T12:20:12.830Z,2.80
2019-06-08T12:22:37.677Z,2.60
2019-06-08T12:25:06.190Z,2.77
2019-06-08T12:27:39.409Z,2.40
2019-06-08T12:30:13.319Z,3.30
2019-06-08T12:32:36.365Z,2.40
2019-06-08T12:35:03.553Z,2.60
2019-06-08T12:37:33.706Z,2.40
2019-06-08T12:40:07.593Z,2.63
2019-06-08T12:42:34.387Z,2.40
2019-06-08T12:45:04.533Z,2.43
2019-06-08T12:47:35.156Z,2.33
2019-06-08T12:50:02.199Z,2.63
2019-06-08T12:52:29.796Z,2.67
2019-06-08T12:55:06.090Z,2.63
2019-06-08T12:57:28.390Z,2.53
2019-06-08T12:59:59.788Z,2.23
2019-06-08T13:02:24.427Z,2.00
2019-06-08T13:04:52.060Z,3.00
2019-06-08T13:07:21.892Z,2.20
2019-06-08T13:09:48.923Z,2.80
2019-06-08T13:12:21.248Z,3.10
2019-06-08T13:14:53.322Z,3.07
2019-06-08T13:17:21.312Z,2.60
2019-06-08T13:19:48.395Z,2.40
2019-06-08T13:22:15.424Z,2.50
2019-06-08T13:24:48.561Z,2.83
2019-06-08T13:27:19.199Z,2.50
2019-06-08T13:29:44.495Z,2.30
2019-06-08T13:32:11.745Z,2.60
2019-06-08T13:34:38.893Z,2.80
2019-06-08T13:37:08.215Z,2.80
2019-06-08T13:39:34.748Z,2.43
2019-06-08T13:42:01.733Z,3.07
2019-06-08T13:44:31.780Z,2.80
2019-06-08T13:46:58.757Z,3.03
2019-06-08T13:49:29.689Z,2.70
2019-06-08T13:51:54.618Z,3.27
2019-06-08T13:54:23.605Z,2.67
2019-06-08T13:56:50.647Z,2.90
2019-06-08T13:59:22.285Z,2.40
2019-06-08T14:01:53.435Z,2.57
2019-06-08T14:04:21.075Z,2.50
2019-06-08T14:06:50.599Z,2.40
2019-06-08T14:09:22.102Z,2.97
2019-06-08T14:11:50.962Z,3.27
2019-06-08T14:14:19.936Z,3.67
2019-06-08T14:16:50.722Z,3.27
2019-06-08T14:19:19.980Z,3.90
2019-06-08T14:21:47.626Z,3.40
2019-06-08T14:24:22.863Z,3.80
2019-06-08T14:26:48.510Z,3.77
2019-06-08T14:29:18.423Z,4.00
2019-06-08T14:31:50.732Z,4.10
2019-06-08T14:34:22.978Z,3.70
2019-06-08T14:36:49.500Z,3.30
2019-06-08T14:39:22.027Z,3.37
2019-06-08T14:41:49.716Z,3.23
2019-06-08T14:44:19.600Z,3.60
2019-06-08T14:46:47.978Z,3.83
2019-06-08T14:49:18.280Z,4.43
2019-06-08T14:51:51.621Z,4.17
2019-06-08T14:54:32.778Z,3.90
2019-06-08T14:56:57.786Z,3.97
2019-06-08T14:59:25.512Z,4.07
2019-06-08T15:01:53.867Z,3.63
2019-06-08T15:04:23.795Z,3.40
2019-06-08T15:06:49.757Z,4.30
2019-06-08T15:09:19.431Z,4.13
2019-06-08T15:11:48.461Z,3.80
2019-06-08T15:14:15.415Z,3.83
2019-06-08T15:16:45.527Z,4.00
2019-06-08T15:19:12.507Z,4.27
2019-06-08T15:21:39.693Z,4.23
2019-06-08T15:24:11.317Z,3.97
2019-06-08T15:26:42.771Z,4.37
2019-06-08T15:29:07.538Z,4.00
2019-06-08T15:31:34.615Z,2.90
2019-06-08T15:34:01.577Z,1.80
2019-06-08T15:36:30.729Z,1.50
2019-06-08T15:38:58.591Z,1.30
2019-06-08T15:41:26.527Z,1.67
2019-06-08T15:43:54.419Z,1.40
2019-06-08T15:46:22.071Z,1.80
2019-06-08T15:48:51.119Z,1.23
2019-06-08T15:51:18.077Z,1.40
2019-06-08T15:53:47.701Z,1.50
2019-06-08T15:56:15.122Z,1.90
2019-06-08T15:58:42.079Z,2.27
2019-06-08T16:01:09.063Z,1.60
2019-06-08T16:03:40.474Z,1.83
2019-06-08T16:06:08.796Z,1.77
2019-06-08T16:08:37.875Z,1.50
2019-06-08T16:11:04.717Z,1.63
2019-06-08T16:13:33.048Z,1.60
2019-06-08T16:16:00.010Z,1.80
2019-06-08T16:18:27.406Z,2.43
2019-06-08T16:20:57.511Z,2.50
2019-06-08T16:23:25.354Z,2.67
2019-06-08T16:25:58.064Z,2.80
2019-06-08T16:28:25.692Z,3.57
2019-06-08T16:30:52.748Z,3.30
2019-06-08T16:33:19.756Z,3.20
2019-06-08T16:35:48.517Z,4.10
2019-06-08T16:38:15.522Z,3.10
2019-06-08T16:40:42.486Z,3.10
2019-06-08T16:43:09.486Z,3.03
2019-06-08T16:45:37.735Z,3.83
2019-06-08T16:48:04.750Z,3.30
2019-06-08T16:50:32.922Z,3.17
2019-06-08T16:52:59.864Z,3.10
2019-06-08T16:55:27.697Z,3.40
2019-06-08T16:57:54.793Z,3.30
2019-06-08T17:00:40.776Z,3.53
2019-06-08T17:02:54.550Z,3.00
2019-06-08T17:05:21.530Z,3.57
2019-06-08T17:07:48.498Z,3.10
2019-06-08T17:10:15.519Z,2.17
2019-06-08T17:12:42.528Z,2.40
2019-06-08T17:15:09.784Z,2.47
2019-06-08T17:17:36.760Z,3.30
2019-06-08T17:20:09.308Z,2.60
2019-06-08T17:22:36.745Z,2.10
2019-06-08T17:25:04.169Z,2.33
2019-06-08T17:27:32.655Z,2.17
2019-06-08T17:29:59.966Z,2.40
2019-06-08T17:32:27.047Z,2.50
2019-06-08T17:34:54.057Z,2.30
2019-06-08T17:37:21.034Z,3.30
2019-06-08T17:39:47.980Z,2.87
2019-06-08T17:42:14.990Z,2.70
2019-06-08T17:44:42.536Z,3.40
2019-06-08T17:47:09.743Z,2.90
2019-06-08T17:49:36.855Z,2.60
2019-06-08T17:52:03.821Z,3.20
2019-06-08T17:54:30.842Z,3.00
2019-06-08T17:56:57.857Z,3.57
2019-06-08T17:59:24.834Z,3.40
2019-06-08T18:01:53.853Z,3.10
2019-06-08T18:04:20.833Z,3.83
2019-06-08T18:06:47.816Z,3.57
2019-06-08T18:09:19.752Z,4.73
2019-06-08T18:11:47.976Z,3.50
2019-06-08T18:14:15.098Z,3.90
2019-06-08T18:16:43.751Z,3.30
2019-06-08T18:19:24.225Z,3.87
2019-06-08T18:21:52.221Z,3.67
2019-06-08T18:24:19.210Z,3.73
2019-06-08T18:26:47.483Z,3.77
2019-06-08T18:29:14.597Z,4.07
2019-06-08T18:31:43.007Z,3.83
2019-06-08T18:34:17.606Z,3.90
2019-06-08T18:36:43.553Z,3.63
2019-06-08T18:39:10.498Z,3.50
2019-06-08T18:41:39.335Z,3.50
2019-06-08T18:44:08.428Z,3.30
2019-06-08T18:46:37.563Z,3.13
2019-06-08T18:49:08.180Z,2.90
2019-06-08T18:51:35.182Z,3.33
2019-06-08T18:54:11.271Z,3.97
2019-06-08T18:56:32.161Z,3.20
2019-06-08T18:58:59.152Z,3.40
2019-06-08T19:01:27.555Z,4.83
2019-06-08T19:03:57.726Z,3.50
2019-06-08T19:06:24.396Z,3.43
2019-06-08T19:08:51.612Z,2.97
2019-06-08T19:11:23.928Z,3.20
2019-06-08T19:13:52.176Z,4.10
2019-06-08T19:16:19.623Z,3.83
2019-06-08T19:18:52.112Z,3.83
2019-06-08T19:21:24.434Z,3.87
2019-06-08T19:23:51.410Z,3.50
2019-06-08T19:26:18.397Z,3.20
2019-06-08T19:28:53.586Z,3.60
2019-06-08T19:31:19.620Z,4.00
2019-06-08T19:33:51.376Z,3.60
2019-06-08T19:36:17.168Z,3.70
2019-06-08T19:38:44.666Z,4.13
2019-06-08T19:41:13.310Z,4.17
2019-06-08T19:43:43.606Z,4.30
2019-06-08T19:46:11.600Z,3.80
2019-06-08T19:48:39.697Z,3.77
2019-06-08T19:51:07.643Z,3.77
2019-06-08T19:53:34.732Z,3.70
2019-06-08T19:56:01.696Z,4.73
2019-06-08T19:58:28.693Z,3.80
2019-06-08T20:00:58.598Z,3.73
2019-06-08T20:03:24.651Z,4.27
2019-06-08T20:05:53.830Z,3.97
2019-06-08T20:08:20.800Z,4.10
2019-06-08T20:10:49.227Z,3.63
2019-06-08T20:13:16.715Z,3.70
2019-06-08T20:15:47.619Z,3.40
2019-06-08T20:18:12.575Z,3.90
2019-06-08T20:20:39.605Z,3.73
2019-06-08T20:23:09.492Z,4.07
2019-06-08T20:25:38.039Z,3.57
2019-06-08T20:28:04.401Z,3.10
2019-06-08T20:30:31.394Z,2.90
2019-06-08T20:33:01.421Z,3.67
2019-06-08T20:35:28.394Z,3.33
2019-06-08T20:37:57.772Z,3.67
2019-06-08T20:40:27.915Z,3.33
2019-06-08T20:42:57.557Z,3.33
2019-06-08T20:45:24.066Z,3.23
2019-06-08T20:47:52.691Z,4.43
2019-06-08T20:50:20.218Z,3.40
2019-06-08T20:52:49.276Z,3.20
2019-06-08T20:55:17.503Z,4.23
2019-06-08T20:57:45.134Z,4.13
2019-06-08T21:00:15.008Z,3.90
2019-06-08T21:02:41.981Z,3.73
2019-06-08T21:05:09.056Z,3.60
2019-06-08T21:07:36.033Z,3.80
2019-06-08T21:10:03.546Z,3.23
2019-06-08T21:12:30.513Z,3.77
2019-06-08T21:14:57.654Z,3.43
2019-06-08T21:17:24.665Z,3.53
2019-06-08T21:19:53.032Z,3.90
2019-06-08T21:22:20.257Z,3.60
2019-06-08T21:24:53.649Z,3.73
2019-06-08T21:27:20.378Z,3.50
2019-06-08T21:29:56.179Z,4.23
2019-06-08T21:32:17.701Z,3.60
2019-06-08T21:34:47.617Z,3.67
2019-06-08T21:37:13.713Z,3.90
2019-06-08T21:39:40.721Z,3.27
2019-06-08T21:42:07.984Z,3.83
2019-06-08T21:44:37.095Z,3.90
2019-06-08T21:47:04.087Z,3.80
2019-06-08T21:49:31.056Z,4.07
2019-06-08T21:52:01.322Z,3.87
2019-06-08T21:54:37.463Z,4.37
2019-06-08T21:57:10.670Z,4.10
2019-06-08T21:59:40.656Z,4.07
2019-06-08T22:02:08.288Z,4.80
2019-06-08T22:04:37.203Z,4.40
2019-06-08T22:07:04.324Z,3.77
2019-06-08T22:09:31.370Z,4.17
2019-06-08T22:12:00.554Z,4.20
2019-06-08T22:14:27.426Z,3.73
2019-06-08T22:16:55.558Z,4.47
2019-06-08T22:19:23.425Z,3.83
2019-06-08T22:21:52.030Z,3.47
2019-06-08T22:24:19.269Z,3.93
2019-06-08T22:26:46.237Z,4.30
2019-06-08T22:29:15.302Z,4.57
2019-06-08T22:31:42.286Z,3.80
2019-06-08T22:34:09.243Z,4.33
2019-06-08T22:36:37.234Z,4.33
2019-06-08T22:39:07.875Z,3.90
2019-06-08T22:41:37.132Z,3.97
2019-06-08T22:44:03.554Z,3.90
2019-06-08T22:46:30.512Z,4.00
2019-06-08T22:49:00.568Z,4.20
2019-06-08T22:51:27.696Z,4.00
2019-06-08T22:54:02.726Z,4.37
2019-06-08T22:56:29.867Z,4.50
2019-06-08T22:59:00.583Z,3.77
2019-06-08T23:01:27.851Z,4.60
2019-06-08T23:03:56.159Z,4.17
2019-06-08T23:06:23.532Z,3.73
2019-06-08T23:08:50.505Z,3.60
2019-06-08T23:11:18.106Z,4.27
2019-06-08T23:13:47.188Z,3.57
2019-06-08T23:16:14.121Z,4.00
2019-06-08T23:18:41.132Z,4.50
2019-06-08T23:21:08.937Z,4.67
2019-06-08T23:23:38.113Z,4.23
2019-06-08T23:26:07.242Z,4.60
2019-06-08T23:28:37.833Z,4.33
2019-06-08T23:31:16.632Z,4.30
2019-06-08T23:33:33.840Z,4.23
2019-06-08T23:36:39.538Z,4.37
2019-06-08T23:38:37.401Z,4.30
2019-06-08T23:41:05.584Z,5.00
2019-06-08T23:43:32.745Z,3.87
2019-06-08T23:46:02.466Z,4.63
2019-06-08T23:48:30.656Z,4.43
2019-06-08T23:50:57.936Z,4.60
2019-06-08T23:53:27.499Z,4.73
2019-06-08T23:55:58.274Z,4.37
2019-06-08T23:58:25.112Z,5.23
